Kyokuyo Maru No.51 — JD4090 — position and weather

sailwx.info

Track history (hours):
 
Tides and Currents Weather Stations Pressure Air Temp Water Temp Dewpoint Dewpoint Depression Visibility Wind Speed Wind Dir Waves Ship Positions

Kyokuyo Maru No.51

Last reported at 2017-Nov-18 23:41 UTC. Time now 2017-Nov-21 15:42 UTC.
Position N 34°01' E 135°01'.

Length 75 m; draft 4.8 m.

Type: Cargo ship. MMSI: 431008517.

Date/timePositionNaut miles runAvg speedWind from/ knotsBaromVisibWave heightAir tempDewpointWater temp
2017-Nov-18 23:41N 34°01' E 135°01'313.4
2017-Nov-18 23:30N 34°03' E 135°01'713.0
2017-Nov-18 22:59N 34°10' E 134°60'1011.7
2017-Nov-18 22:07N 34°20' E 134°59'512.2
2017-Nov-18 21:40N 34°25' E 135°00'212.2
2017-Nov-18 21:29N 34°27' E 135°01'611.9
2017-Nov-18 21:00N 34°33' E 135°02'5 9.3
2017-Nov-18 20:29N 34°37' E 134°60'712.0
2017-Nov-18 19:56N 34°38' E 134°51'2 0.2
2017-Nov-18 06:36N 34°37' E 134°54'112.9
2017-Nov-18 06:30N 34°38' E 134°56'611.2
2017-Nov-18 05:59N 34°37' E 135°03'611.6
2017-Nov-18 05:30N 34°35' E 135°09'612.9
2017-Nov-18 05:00N 34°34' E 135°17'3 4.8
2017-Nov-18 04:28N 34°33' E 135°20'0 0.0
2017-Nov-18 03:52N 34°33' E 135°20'0 0.0
2017-Nov-18 03:28N 34°33' E 135°20'0 0.0
2017-Nov-18 02:58N 34°33' E 135°20'0 0.0
2017-Nov-18 02:22N 34°33' E 135°20'0 0.0
2017-Nov-18 01:52N 34°33' E 135°20'0 0.1
2017-Nov-18 01:16N 34°33' E 135°20'0 0.0
2017-Nov-18 00:58N 34°33' E 135°20'0 0.0
2017-Nov-18 00:28N 34°33' E 135°20'0 0.0
2017-Nov-17 23:58N 34°33' E 135°20'0 0.0
2017-Nov-17 23:22N 34°33' E 135°20'0 0.0
2017-Nov-17 22:53N 34°33' E 135°20'4 9.8
2017-Nov-17 22:30N 34°30' E 135°17'713.8
2017-Nov-17 22:00N 34°26' E 135°10'814.2
2017-Nov-17 21:28N 34°19' E 135°05'714.0
2017-Nov-17 21:00N 34°13' E 135°03'714.0
2017-Nov-17 20:30N 34°06' E 135°03'5 0.1
2017-Nov-15 20:13N 34°02' E 134°60'613.3
2017-Nov-15 19:47N 34°07' E 134°58'414.0
2017-Nov-15 19:29N 34°12' E 134°59'1613.3
2017-Nov-15 18:18N 34°27' E 135°02'413.1
2017-Nov-15 18:00N 34°31' E 135°03'611.8
2017-Nov-15 17:30N 34°37' E 135°02'714.6
2017-Nov-15 17:00N 34°38' E 134°53'2 0.1
2017-Nov-14 11:42N 34°39' E 134°51'312.8
2017-Nov-14 11:29N 34°37' E 134°54'713.8
2017-Nov-14 10:57N 34°36' E 135°03'511.9
2017-Nov-14 10:30N 34°31' E 135°04'714.0
2017-Nov-14 10:00N 34°24' E 135°02'1013.9
2017-Nov-14 09:19N 34°15' E 134°60'413.8
2017-Nov-14 09:00N 34°10' E 135°00'713.4
2017-Nov-14 08:30N 34°04' E 135°01'261 7.6
2017-Nov-12 22:07N 35°40' E 139°57'3 0.1
2017-Nov-11 19:56N 35°37' E 139°58'4 8.1
2017-Nov-11 19:29N 35°34' E 139°56'612.3
2017-Nov-11 19:00N 35°29' E 139°52'612.2
2017-Nov-11 18:31N 35°25' E 139°47'612.1
2017-Nov-11 18:01N 35°19' E 139°44'611.5
2017-Nov-11 17:30N 35°14' E 139°47'612.0
2017-Nov-11 17:00N 35°08' E 139°46'612.1
2017-Nov-11 16:30N 35°03' E 139°42'612.4
2017-Nov-11 16:00N 34°59' E 139°35'23410.3
2017-Nov-10 17:17N 34°00' E 135°01'412.6
2017-Nov-10 16:58N 34°04' E 135°01'612.5
2017-Nov-10 16:27N 34°11' E 134°59'1711.9
2017-Nov-10 15:01N 34°28' E 135°01'011.9
2017-Nov-10 15:00N 34°28' E 135°01'611.8
2017-Nov-10 14:30N 34°34' E 135°03'5 9.5
2017-Nov-10 14:00N 34°37' E 134°58'812.2
2017-Nov-10 13:18N 34°40' E 134°49'  
Track history (hours):
 
Tides and Currents Weather Stations Pressure Air Temp Water Temp Dewpoint Dewpoint Depression Visibility Wind Speed Wind Dir Waves Ship Positions

Kyokuyo Maru No.51

Last reported at 2017-Nov-18 23:41 UTC. Time now 2017-Nov-21 15:42 UTC.
Position N 34°01' E 135°01'.

Length 75 m; draft 4.8 m.

Type: Cargo ship. MMSI: 431008517.

Date/timePositionNaut miles runAvg speedWind from/ knotsBaromVisibWave heightAir tempDewpointWater temp
2017-Nov-18 23:41N 34°01' E 135°01'313.4
2017-Nov-18 23:30N 34°03' E 135°01'713.0
2017-Nov-18 22:59N 34°10' E 134°60'1011.7
2017-Nov-18 22:07N 34°20' E 134°59'512.2
2017-Nov-18 21:40N 34°25' E 135°00'212.2
2017-Nov-18 21:29N 34°27' E 135°01'611.9
2017-Nov-18 21:00N 34°33' E 135°02'5 9.3
2017-Nov-18 20:29N 34°37' E 134°60'712.0
2017-Nov-18 19:56N 34°38' E 134°51'2 0.2
2017-Nov-18 06:36N 34°37' E 134°54'112.9
2017-Nov-18 06:30N 34°38' E 134°56'611.2
2017-Nov-18 05:59N 34°37' E 135°03'611.6
2017-Nov-18 05:30N 34°35' E 135°09'612.9
2017-Nov-18 05:00N 34°34' E 135°17'3 4.8
2017-Nov-18 04:28N 34°33' E 135°20'0 0.0
2017-Nov-18 03:52N 34°33' E 135°20'0 0.0
2017-Nov-18 03:28N 34°33' E 135°20'0 0.0
2017-Nov-18 02:58N 34°33' E 135°20'0 0.0
2017-Nov-18 02:22N 34°33' E 135°20'0 0.0
2017-Nov-18 01:52N 34°33' E 135°20'0 0.1
2017-Nov-18 01:16N 34°33' E 135°20'0 0.0
2017-Nov-18 00:58N 34°33' E 135°20'0 0.0
2017-Nov-18 00:28N 34°33' E 135°20'0 0.0
2017-Nov-17 23:58N 34°33' E 135°20'0 0.0
2017-Nov-17 23:22N 34°33' E 135°20'0 0.0
2017-Nov-17 22:53N 34°33' E 135°20'4 9.8
2017-Nov-17 22:30N 34°30' E 135°17'713.8
2017-Nov-17 22:00N 34°26' E 135°10'814.2
2017-Nov-17 21:28N 34°19' E 135°05'714.0
2017-Nov-17 21:00N 34°13' E 135°03'714.0
2017-Nov-17 20:30N 34°06' E 135°03'5 0.1
2017-Nov-15 20:13N 34°02' E 134°60'613.3
2017-Nov-15 19:47N 34°07' E 134°58'414.0
2017-Nov-15 19:29N 34°12' E 134°59'1613.3
2017-Nov-15 18:18N 34°27' E 135°02'413.1
2017-Nov-15 18:00N 34°31' E 135°03'611.8
2017-Nov-15 17:30N 34°37' E 135°02'714.6
2017-Nov-15 17:00N 34°38' E 134°53'2 0.1
2017-Nov-14 11:42N 34°39' E 134°51'312.8
2017-Nov-14 11:29N 34°37' E 134°54'713.8
2017-Nov-14 10:57N 34°36' E 135°03'511.9
2017-Nov-14 10:30N 34°31' E 135°04'714.0
2017-Nov-14 10:00N 34°24' E 135°02'1013.9
2017-Nov-14 09:19N 34°15' E 134°60'413.8
2017-Nov-14 09:00N 34°10' E 135°00'713.4
2017-Nov-14 08:30N 34°04' E 135°01'261 7.6
2017-Nov-12 22:07N 35°40' E 139°57'3 0.1
2017-Nov-11 19:56N 35°37' E 139°58'4 8.1
2017-Nov-11 19:29N 35°34' E 139°56'612.3
2017-Nov-11 19:00N 35°29' E 139°52'612.2
2017-Nov-11 18:31N 35°25' E 139°47'612.1
2017-Nov-11 18:01N 35°19' E 139°44'611.5
2017-Nov-11 17:30N 35°14' E 139°47'612.0
2017-Nov-11 17:00N 35°08' E 139°46'612.1
2017-Nov-11 16:30N 35°03' E 139°42'612.4
2017-Nov-11 16:00N 34°59' E 139°35'23410.3
2017-Nov-10 17:17N 34°00' E 135°01'412.6
2017-Nov-10 16:58N 34°04' E 135°01'612.5
2017-Nov-10 16:27N 34°11' E 134°59'1711.9
2017-Nov-10 15:01N 34°28' E 135°01'011.9
2017-Nov-10 15:00N 34°28' E 135°01'611.8
2017-Nov-10 14:30N 34°34' E 135°03'5 9.5
2017-Nov-10 14:00N 34°37' E 134°58'812.2
2017-Nov-10 13:18N 34°40' E 134°49'  

Dump ship's entire track history